sensor_id;sensor_type;location;lat;lon;timestamp;pressure;altitude;pressure_sealevel;temperature;humidity
23172;BME280;11754;42.664;23.594;2023-04-26T00:00:21;94481.75;;;10.36;79.97
23172;BME280;11754;42.664;23.594;2023-04-26T00:06:20;94480.00;;;10.43;79.83
23172;BME280;11754;42.664;23.594;2023-04-26T00:08:46;94480.00;;;10.43;79.71
23172;BME280;11754;42.664;23.594;2023-04-26T00:11:11;94484.03;;;10.39;79.78
23172;BME280;11754;42.664;23.594;2023-04-26T00:13:37;94473.59;;;10.30;79.89
23172;BME280;11754;42.664;23.594;2023-04-26T00:16:03;94476.97;;;10.24;80.42
23172;BME280;11754;42.664;23.594;2023-04-26T00:18:29;94464.53;;;10.18;80.34
23172;BME280;11754;42.664;23.594;2023-04-26T00:20:55;94469.53;;;10.13;80.11
23172;BME280;11754;42.664;23.594;2023-04-26T00:23:21;94454.50;;;10.07;80.22
23172;BME280;11754;42.664;23.594;2023-04-26T00:25:46;94450.34;;;9.98;80.27
23172;BME280;11754;42.664;23.594;2023-04-26T00:28:12;94447.47;;;9.93;80.68
23172;BME280;11754;42.664;23.594;2023-04-26T00:30:37;94447.59;;;9.84;80.85
23172;BME280;11754;42.664;23.594;2023-04-26T00:33:05;94459.22;;;9.75;81.01
23172;BME280;11754;42.664;23.594;2023-04-26T00:35:30;94458.91;;;9.63;81.83
23172;BME280;11754;42.664;23.594;2023-04-26T00:37:56;94452.66;;;9.50;82.53
23172;BME280;11754;42.664;23.594;2023-04-26T00:40:21;94450.13;;;9.42;83.11
23172;BME280;11754;42.664;23.594;2023-04-26T00:42:46;94445.97;;;9.32;83.43
23172;BME280;11754;42.664;23.594;2023-04-26T00:55:17;94440.00;;;9.09;84.89
23172;BME280;11754;42.664;23.594;2023-04-26T00:57:45;94433.47;;;9.05;85.26
23172;BME280;11754;42.664;23.594;2023-04-26T01:00:11;94442.34;;;9.04;85.43
23172;BME280;11754;42.664;23.594;2023-04-26T01:02:37;94441.09;;;9.00;85.53
23172;BME280;11754;42.664;23.594;2023-04-26T01:05:03;94443.91;;;8.98;86.15
23172;BME280;11754;42.664;23.594;2023-04-26T01:07:29;94440.63;;;8.96;86.36
23172;BME280;11754;42.664;23.594;2023-04-26T01:20:18;94450.22;;;8.36;88.48
23172;BME280;11754;42.664;23.594;2023-04-26T01:22:44;94439.16;;;8.26;89.05
23172;BME280;11754;42.664;23.594;2023-04-26T01:25:11;94457.34;;;8.28;89.40
23172;BME280;11754;42.664;23.594;2023-04-26T01:27:37;94457.25;;;8.21;89.31
23172;BME280;11754;42.664;23.594;2023-04-26T01:30:04;94459.25;;;8.19;89.69
23172;BME280;11754;42.664;23.594;2023-04-26T01:35:51;94448.75;;;8.19;88.73
23172;BME280;11754;42.664;23.594;2023-04-26T01:38:17;94443.47;;;8.19;89.09
23172;BME280;11754;42.664;23.594;2023-04-26T01:40:44;94447.19;;;8.25;88.60
23172;BME280;11754;42.664;23.594;2023-04-26T01:43:10;94440.47;;;8.22;88.05
23172;BME280;11754;42.664;23.594;2023-04-26T01:45:36;94437.34;;;8.27;88.08
23172;BME280;11754;42.664;23.594;2023-04-26T01:48:01;94439.16;;;8.26;87.88
23172;BME280;11754;42.664;23.594;2023-04-26T01:50:26;94449.81;;;8.25;87.21
23172;BME280;11754;42.664;23.594;2023-04-26T01:52:52;94445.72;;;8.22;86.93
23172;BME280;11754;42.664;23.594;2023-04-26T01:55:17;94457.81;;;8.31;87.20
23172;BME280;11754;42.664;23.594;2023-04-26T01:57:43;94455.66;;;8.35;86.82
23172;BME280;11754;42.664;23.594;2023-04-26T02:00:08;94452.81;;;8.45;86.60
23172;BME280;11754;42.664;23.594;2023-04-26T02:02:34;94453.38;;;8.55;85.57
23172;BME280;11754;42.664;23.594;2023-04-26T02:04:59;94445.78;;;8.60;85.38
23172;BME280;11754;42.664;23.594;2023-04-26T02:07:25;94454.66;;;8.59;84.26
23172;BME280;11754;42.664;23.594;2023-04-26T02:09:50;94445.59;;;8.61;83.97
23172;BME280;11754;42.664;23.594;2023-04-26T02:12:15;94437.25;;;8.58;82.80
23172;BME280;11754;42.664;23.594;2023-04-26T02:14:41;94423.47;;;8.56;82.77
23172;BME280;11754;42.664;23.594;2023-04-26T02:17:06;94437.25;;;8.58;82.25
23172;BME280;11754;42.664;23.594;2023-04-26T02:19:33;94446.13;;;8.57;82.05
23172;BME280;11754;42.664;23.594;2023-04-26T02:21:58;94437.16;;;8.51;81.98
23172;BME280;11754;42.664;23.594;2023-04-26T02:24:24;94440.59;;;8.52;82.32
23172;BME280;11754;42.664;23.594;2023-04-26T02:30:11;94437.31;;;8.50;83.54
23172;BME280;11754;42.664;23.594;2023-04-26T02:32:37;94440.31;;;8.47;83.98
23172;BME280;11754;42.664;23.594;2023-04-26T02:35:03;94452.09;;;8.51;84.26
23172;BME280;11754;42.664;23.594;2023-04-26T02:37:29;94450.94;;;8.53;84.36
23172;BME280;11754;42.664;23.594;2023-04-26T02:39:54;94448.13;;;8.55;84.25
23172;BME280;11754;42.664;23.594;2023-04-26T02:42:20;94452.47;;;8.48;83.84
23172;BME280;11754;42.664;23.594;2023-04-26T02:44:45;94451.91;;;8.37;84.00
23172;BME280;11754;42.664;23.594;2023-04-26T02:47:11;94458.16;;;8.28;83.26
23172;BME280;11754;42.664;23.594;2023-04-26T02:49:36;94459.78;;;8.29;83.64
23172;BME280;11754;42.664;23.594;2023-04-26T02:52:01;94458.00;;;8.30;83.60
23172;BME280;11754;42.664;23.594;2023-04-26T02:54:27;94450.59;;;8.33;83.71
23172;BME280;11754;42.664;23.594;2023-04-26T02:56:52;94453.97;;;8.42;83.82
23172;BME280;11754;42.664;23.594;2023-04-26T02:59:19;94446.13;;;8.57;83.57
23172;BME280;11754;42.664;23.594;2023-04-26T03:01:44;94440.78;;;8.65;83.41
23172;BME280;11754;42.664;23.594;2023-04-26T03:04:10;94431.00;;;8.59;83.68
23172;BME280;11754;42.664;23.594;2023-04-26T03:06:35;94430.09;;;8.52;83.54
23172;BME280;11754;42.664;23.594;2023-04-26T03:09:00;94422.91;;;8.46;83.81
23172;BME280;11754;42.664;23.594;2023-04-26T03:11:26;94427.56;;;8.35;83.88
23172;BME280;11754;42.664;23.594;2023-04-26T03:13:51;94424.31;;;8.33;84.23
23172;BME280;11754;42.664;23.594;2023-04-26T03:16:20;94426.09;;;8.33;83.56
23172;BME280;11754;42.664;23.594;2023-04-26T03:18:45;94432.25;;;8.25;84.17
23172;BME280;11754;42.664;23.594;2023-04-26T03:21:11;94431.44;;;8.25;84.15
23172;BME280;11754;42.664;23.594;2023-04-26T03:23:37;94429.81;;;8.24;83.79
23172;BME280;11754;42.664;23.594;2023-04-26T03:26:02;94426.81;;;8.12;84.47
23172;BME280;11754;42.664;23.594;2023-04-26T03:28:28;94419.91;;;8.11;84.56
23172;BME280;11754;42.664;23.594;2023-04-26T03:30:54;94410.94;;;8.05;84.70
23172;BME280;11754;42.664;23.594;2023-04-26T03:33:21;94403.88;;;8.06;84.84
23172;BME280;11754;42.664;23.594;2023-04-26T03:35:46;94416.81;;;8.07;84.63
23172;BME280;11754;42.664;23.594;2023-04-26T03:38:12;94417.91;;;8.13;84.61
23172;BME280;11754;42.664;23.594;2023-04-26T03:40:37;94412.78;;;8.19;84.65
23172;BME280;11754;42.664;23.594;2023-04-26T03:43:02;94418.50;;;8.23;84.56
23172;BME280;11754;42.664;23.594;2023-04-26T03:45:28;94417.41;;;8.32;83.76
23172;BME280;11754;42.664;23.594;2023-04-26T03:47:53;94414.44;;;8.35;84.17
23172;BME280;11754;42.664;23.594;2023-04-26T03:50:19;94413.81;;;8.33;83.59
23172;BME280;11754;42.664;23.594;2023-04-26T03:52:44;94416.75;;;8.38;83.66
23172;BME280;11754;42.664;23.594;2023-04-26T03:55:09;94417.56;;;8.39;83.82
23172;BME280;11754;42.664;23.594;2023-04-26T03:57:36;94416.38;;;8.41;84.09
23172;BME280;11754;42.664;23.594;2023-04-26T04:00:02;94425.34;;;8.47;84.67
23172;BME280;11754;42.664;23.594;2023-04-26T04:02:32;94430.34;;;8.57;84.28
23172;BME280;11754;42.664;23.594;2023-04-26T04:04:57;94437.72;;;8.76;85.00
23172;BME280;11754;42.664;23.594;2023-04-26T04:07:23;94441.72;;;9.02;84.04
23172;BME280;11754;42.664;23.594;2023-04-26T04:09:48;94445.06;;;9.25;83.33
23172;BME280;11754;42.664;23.594;2023-04-26T04:12:13;94445.84;;;9.41;82.80
23172;BME280;11754;42.664;23.594;2023-04-26T04:14:39;94442.66;;;9.60;80.95
23172;BME280;11754;42.664;23.594;2023-04-26T04:17:04;94448.88;;;9.74;81.25
23172;BME280;11754;42.664;23.594;2023-04-26T04:19:30;94447.84;;;9.90;81.06
23172;BME280;11754;42.664;23.594;2023-04-26T04:21:55;94451.50;;;10.10;79.33
23172;BME280;11754;42.664;23.594;2023-04-26T04:24:21;94455.97;;;10.16;78.46
23172;BME280;11754;42.664;23.594;2023-04-26T04:26:46;94459.25;;;10.18;78.10
23172;BME280;11754;42.664;23.594;2023-04-26T04:29:11;94462.06;;;10.17;78.01
23172;BME280;11754;42.664;23.594;2023-04-26T04:31:37;94459.06;;;10.20;78.40
23172;BME280;11754;42.664;23.594;2023-04-26T04:34:04;94465.31;;;10.33;78.24
23172;BME280;11754;42.664;23.594;2023-04-26T04:36:30;94456.88;;;10.45;77.90
23172;BME280;11754;42.664;23.594;2023-04-26T04:38:55;94456.25;;;10.64;77.68
23172;BME280;11754;42.664;23.594;2023-04-26T04:41:21;94458.84;;;10.86;77.06
23172;BME280;11754;42.664;23.594;2023-04-26T04:50:32;94462.34;;;11.34;75.77
23172;BME280;11754;42.664;23.594;2023-04-26T04:52:57;94470.56;;;11.52;75.17
23172;BME280;11754;42.664;23.594;2023-04-26T04:55:22;94464.53;;;11.65;74.72
23172;BME280;11754;42.664;23.594;2023-04-26T04:57:48;94470.22;;;11.62;74.45
23172;BME280;11754;42.664;23.594;2023-04-26T05:00:14;94466.78;;;11.75;74.33
23172;BME280;11754;42.664;23.594;2023-04-26T05:02:40;94477.66;;;11.87;73.99
23172;BME280;11754;42.664;23.594;2023-04-26T05:15:11;94475.69;;;12.09;72.64
23172;BME280;11754;42.664;23.594;2023-04-26T05:17:36;94473.25;;;12.14;72.62
23172;BME280;11754;42.664;23.594;2023-04-26T05:20:02;94470.00;;;12.25;72.40
23172;BME280;11754;42.664;23.594;2023-04-26T05:22:31;94475.31;;;12.32;72.01
23172;BME280;11754;42.664;23.594;2023-04-26T05:24:57;94477.34;;;12.43;72.02
23172;BME280;11754;42.664;23.594;2023-04-26T05:27:23;94477.38;;;12.56;71.73
23172;BME280;11754;42.664;23.594;2023-04-26T05:29:48;94484.91;;;12.59;70.82
23172;BME280;11754;42.664;23.594;2023-04-26T05:32:14;94481.03;;;12.48;70.52
23172;BME280;11754;42.664;23.594;2023-04-26T05:34:40;94494.03;;;12.50;70.46
23172;BME280;11754;42.664;23.594;2023-04-26T05:37:05;94490.41;;;12.64;70.53
23172;BME280;11754;42.664;23.594;2023-04-26T06:03:28;94490.16;;;13.45;67.27
23172;BME280;11754;42.664;23.594;2023-04-26T06:05:53;94480.94;;;13.61;67.40
23172;BME280;11754;42.664;23.594;2023-04-26T06:08:18;94481.34;;;13.58;66.65
23172;BME280;11754;42.664;23.594;2023-04-26T06:10:44;94487.03;;;13.68;67.25
23172;BME280;11754;42.664;23.594;2023-04-26T06:13:11;94478.41;;;13.80;66.68
23172;BME280;11754;42.664;23.594;2023-04-26T06:15:36;94477.19;;;13.82;66.52
23172;BME280;11754;42.664;23.594;2023-04-26T06:18:03;94473.31;;;14.23;66.09
23172;BME280;11754;42.664;23.594;2023-04-26T06:20:29;94464.31;;;14.62;64.60
23172;BME280;11754;42.664;23.594;2023-04-26T06:22:54;94464.47;;;14.93;63.54
23172;BME280;11754;42.664;23.594;2023-04-26T06:25:20;94472.72;;;15.28;62.94
23172;BME280;11754;42.664;23.594;2023-04-26T06:27:45;94472.16;;;15.26;61.98
23172;BME280;11754;42.664;23.594;2023-04-26T06:30:11;94463.19;;;15.20;61.49
23172;BME280;11754;42.664;23.594;2023-04-26T06:32:39;94470.94;;;15.22;60.13
23172;BME280;11754;42.664;23.594;2023-04-26T06:35:05;94466.84;;;15.26;60.25
23172;BME280;11754;42.664;23.594;2023-04-26T06:37:31;94457.38;;;15.30;60.23
23172;BME280;11754;42.664;23.594;2023-04-26T06:39:56;94468.31;;;15.40;60.41
23172;BME280;11754;42.664;23.594;2023-04-26T06:42:21;94471.84;;;15.52;60.39
23172;BME280;11754;42.664;23.594;2023-04-26T06:44:47;94474.38;;;15.47;58.91
23172;BME280;11754;42.664;23.594;2023-04-26T06:47:12;94473.19;;;15.61;59.24
23172;BME280;11754;42.664;23.594;2023-04-26T06:49:38;94475.94;;;15.55;58.64
23172;BME280;11754;42.664;23.594;2023-04-26T07:31:37;94474.59;;;15.64;55.54
23172;BME280;11754;42.664;23.594;2023-04-26T07:34:02;94474.66;;;15.57;56.30
23172;BME280;11754;42.664;23.594;2023-04-26T07:36:28;94467.19;;;15.73;55.39
23172;BME280;11754;42.664;23.594;2023-04-26T07:38:53;94470.34;;;16.12;55.18
23172;BME280;11754;42.664;23.594;2023-04-26T07:41:19;94472.75;;;15.83;50.49
23172;BME280;11754;42.664;23.594;2023-04-26T07:43:44;94472.19;;;15.81;52.44
23172;BME280;11754;42.664;23.594;2023-04-26T07:46:10;94471.38;;;15.80;53.71
23172;BME280;11754;42.664;23.594;2023-04-26T07:48:35;94470.91;;;15.65;54.80
23172;BME280;11754;42.664;23.594;2023-04-26T07:51:10;94468.72;;;15.80;54.33
23172;BME280;11754;42.664;23.594;2023-04-26T07:53:36;94475.50;;;16.25;51.88
23172;BME280;11754;42.664;23.594;2023-04-26T07:56:03;94484.88;;;16.57;51.31
23172;BME280;11754;42.664;23.594;2023-04-26T07:58:30;94479.09;;;17.02;50.90
23172;BME280;11754;42.664;23.594;2023-04-26T08:00:57;94478.41;;;17.19;49.84
23172;BME280;11754;42.664;23.594;2023-04-26T08:03:22;94471.66;;;16.93;51.06
23172;BME280;11754;42.664;23.594;2023-04-26T08:05:48;94479.53;;;16.57;47.44
23172;BME280;11754;42.664;23.594;2023-04-26T08:08:13;94466.31;;;16.39;48.75
23172;BME280;11754;42.664;23.594;2023-04-26T08:10:40;94478.03;;;17.03;48.28
23172;BME280;11754;42.664;23.594;2023-04-26T08:13:06;94469.47;;;17.48;48.14
23172;BME280;11754;42.664;23.594;2023-04-26T08:39:42;94466.25;;;17.98;45.96
23172;BME280;11754;42.664;23.594;2023-04-26T08:42:15;94470.06;;;18.60;43.75
23172;BME280;11754;42.664;23.594;2023-04-26T08:44:42;94462.47;;;18.52;41.03
23172;BME280;11754;42.664;23.594;2023-04-26T08:47:21;94458.59;;;19.43;39.93
23172;BME280;11754;42.664;23.594;2023-04-26T08:49:53;94469.22;;;19.38;40.05
23172;BME280;11754;42.664;23.594;2023-04-26T08:52:26;94468.66;;;19.36;38.96
23172;BME280;11754;42.664;23.594;2023-04-26T08:55:12;94466.72;;;19.49;39.37
23172;BME280;11754;42.664;23.594;2023-04-26T08:57:39;94469.94;;;18.66;41.58
23172;BME280;11754;42.664;23.594;2023-04-26T09:00:08;94471.72;;;18.32;43.39
23172;BME280;11754;42.664;23.594;2023-04-26T09:09:08;94472.47;;;18.44;43.36
23172;BME280;11754;42.664;23.594;2023-04-26T09:14:18;94468.31;;;18.65;40.55
23172;BME280;11754;42.664;23.594;2023-04-26T09:17:01;94477.28;;;18.31;41.63
23172;BME280;11754;42.664;23.594;2023-04-26T09:19:40;94470.94;;;17.91;42.86
23172;BME280;11754;42.664;23.594;2023-04-26T09:22:09;94478.00;;;17.97;43.40
23172;BME280;11754;42.664;23.594;2023-04-26T09:24:47;94479.88;;;17.85;44.13
23172;BME280;11754;42.664;23.594;2023-04-26T09:27:13;94484.88;;;17.58;44.00
23172;BME280;11754;42.664;23.594;2023-04-26T09:29:40;94473.66;;;17.21;44.49
23172;BME280;11754;42.664;23.594;2023-04-26T09:32:06;94486.47;;;16.77;45.51
23172;BME280;11754;42.664;23.594;2023-04-26T09:34:43;94487.78;;;17.33;45.45
23172;BME280;11754;42.664;23.594;2023-04-26T09:37:10;94483.56;;;18.24;42.46
23172;BME280;11754;42.664;23.594;2023-04-26T09:39:40;94486.09;;;18.60;41.61
23172;BME280;11754;42.664;23.594;2023-04-26T09:55:39;94465.25;;;20.46;38.30
23172;BME280;11754;42.664;23.594;2023-04-26T09:58:09;94467.88;;;20.95;36.62
23172;BME280;11754;42.664;23.594;2023-04-26T10:00:36;94484.06;;;21.79;35.13
23172;BME280;11754;42.664;23.594;2023-04-26T10:03:03;94456.59;;;22.20;33.60
23172;BME280;11754;42.664;23.594;2023-04-26T10:05:31;94459.72;;;23.51;32.45
23172;BME280;11754;42.664;23.594;2023-04-26T10:07:56;94452.34;;;24.67;30.41
23172;BME280;11754;42.664;23.594;2023-04-26T10:10:22;94441.00;;;27.81;26.96
23172;BME280;11754;42.664;23.594;2023-04-26T10:12:47;94434.06;;;28.94;23.82
23172;BME280;11754;42.664;23.594;2023-04-26T10:15:13;94435.53;;;29.67;24.73
23172;BME280;11754;42.664;23.594;2023-04-26T10:17:39;94445.63;;;29.44;24.00
23172;BME280;11754;42.664;23.594;2023-04-26T10:20:30;94433.66;;;26.83;26.87
23172;BME280;11754;42.664;23.594;2023-04-26T10:22:57;94442.03;;;26.44;28.11
23172;BME280;11754;42.664;23.594;2023-04-26T10:25:39;94430.44;;;26.20;28.30
23172;BME280;11754;42.664;23.594;2023-04-26T10:28:06;94444.31;;;25.60;27.96
23172;BME280;11754;42.664;23.594;2023-04-26T10:30:32;94446.56;;;24.30;29.55
23172;BME280;11754;42.664;23.594;2023-04-26T10:35:27;94445.00;;;24.24;29.73
23172;BME280;11754;42.664;23.594;2023-04-26T10:45:42;94453.75;;;20.72;35.59
23172;BME280;11754;42.664;23.594;2023-04-26T10:48:18;94445.03;;;20.87;35.02
23172;BME280;11754;42.664;23.594;2023-04-26T11:06:14;94452.22;;;23.07;32.49
23172;BME280;11754;42.664;23.594;2023-04-26T11:08:40;94447.44;;;21.21;33.24
23172;BME280;11754;42.664;23.594;2023-04-26T11:11:06;94449.03;;;19.86;35.50
23172;BME280;11754;42.664;23.594;2023-04-26T11:13:42;94444.72;;;18.74;38.55
23172;BME280;11754;42.664;23.594;2023-04-26T11:16:13;94456.31;;;17.94;39.27
23172;BME280;11754;42.664;23.594;2023-04-26T11:18:40;94454.19;;;17.09;41.78
23172;BME280;11754;42.664;23.594;2023-04-26T11:21:07;94470.63;;;16.22;43.24
23172;BME280;11754;42.664;23.594;2023-04-26T11:23:33;94478.56;;;16.10;44.01
23172;BME280;11754;42.664;23.594;2023-04-26T11:26:00;94455.91;;;15.89;43.29
23172;BME280;11754;42.664;23.594;2023-04-26T11:28:30;94459.03;;;15.86;44.74
23172;BME280;11754;42.664;23.594;2023-04-26T11:30:56;94461.31;;;15.82;45.63
23172;BME280;11754;42.664;23.594;2023-04-26T11:33:22;94471.41;;;15.55;44.97
23172;BME280;11754;42.664;23.594;2023-04-26T11:35:48;94470.63;;;15.55;45.30
23172;BME280;11754;42.664;23.594;2023-04-26T11:38:14;94469.28;;;15.64;45.26
23172;BME280;11754;42.664;23.594;2023-04-26T11:40:40;94472.03;;;15.76;45.58
23172;BME280;11754;42.664;23.594;2023-04-26T11:43:06;94473.19;;;15.98;45.75
23172;BME280;11754;42.664;23.594;2023-04-26T11:45:34;94464.66;;;15.78;44.37
23172;BME280;11754;42.664;23.594;2023-04-26T11:48:06;94459.69;;;15.81;43.65
23172;BME280;11754;42.664;23.594;2023-04-26T11:50:33;94462.03;;;15.90;45.01
23172;BME280;11754;42.664;23.594;2023-04-26T11:53:00;94458.25;;;15.97;45.47
23172;BME280;11754;42.664;23.594;2023-04-26T11:58:49;94460.63;;;16.05;43.13
23172;BME280;11754;42.664;23.594;2023-04-26T12:01:28;94443.22;;;15.91;42.68
23172;BME280;11754;42.664;23.594;2023-04-26T12:03:57;94457.22;;;16.17;42.72
23172;BME280;11754;42.664;23.594;2023-04-26T12:09:48;94446.56;;;16.58;41.10
23172;BME280;11754;42.664;23.594;2023-04-26T12:12:14;94442.88;;;16.60;42.77
23172;BME280;11754;42.664;23.594;2023-04-26T12:14:39;94439.19;;;16.72;43.13
23172;BME280;11754;42.664;23.594;2023-04-26T12:17:05;94428.97;;;16.57;43.34
23172;BME280;11754;42.664;23.594;2023-04-26T12:22:01;94431.09;;;16.67;43.39
23172;BME280;11754;42.664;23.594;2023-04-26T12:24:29;94433.13;;;17.07;41.55
23172;BME280;11754;42.664;23.594;2023-04-26T12:26:57;94432.34;;;17.59;39.90
23172;BME280;11754;42.664;23.594;2023-04-26T12:29:22;94417.25;;;18.16;39.57
23172;BME280;11754;42.664;23.594;2023-04-26T12:41:53;94417.66;;;18.70;36.61
23172;BME280;11754;42.664;23.594;2023-04-26T12:44:19;94418.00;;;18.91;35.78
23172;BME280;11754;42.664;23.594;2023-04-26T12:46:44;94414.56;;;20.66;34.13
23172;BME280;11754;42.664;23.594;2023-04-26T12:49:10;94414.94;;;21.49;32.72
23172;BME280;11754;42.664;23.594;2023-04-26T12:51:35;94407.41;;;22.09;30.51
23172;BME280;11754;42.664;23.594;2023-04-26T12:54:01;94412.22;;;22.02;31.55
23172;BME280;11754;42.664;23.594;2023-04-26T12:56:28;94418.44;;;21.55;32.66
23172;BME280;11754;42.664;23.594;2023-04-26T12:58:53;94418.53;;;20.91;32.70
23172;BME280;11754;42.664;23.594;2023-04-26T13:01:19;94420.75;;;20.45;31.99
23172;BME280;11754;42.664;23.594;2023-04-26T13:03:44;94419.31;;;20.32;33.21
23172;BME280;11754;42.664;23.594;2023-04-26T13:06:10;94420.63;;;19.80;34.60
23172;BME280;11754;42.664;23.594;2023-04-26T13:08:36;94414.97;;;19.60;34.24
23172;BME280;11754;42.664;23.594;2023-04-26T13:11:01;94425.69;;;19.60;35.10
23172;BME280;11754;42.664;23.594;2023-04-26T13:13:27;94414.69;;;20.00;34.01
23172;BME280;11754;42.664;23.594;2023-04-26T13:15:52;94430.03;;;20.59;32.84
23172;BME280;11754;42.664;23.594;2023-04-26T13:21:39;94428.38;;;19.04;34.69
23172;BME280;11754;42.664;23.594;2023-04-26T13:24:06;94440.88;;;18.70;35.19
23172;BME280;11754;42.664;23.594;2023-04-26T13:26:31;94426.22;;;18.56;35.62
23172;BME280;11754;42.664;23.594;2023-04-26T13:28:57;94440.69;;;18.60;36.86
23172;BME280;11754;42.664;23.594;2023-04-26T13:31:22;94450.56;;;18.88;36.65
23172;BME280;11754;42.664;23.594;2023-04-26T13:33:48;94455.88;;;18.14;36.37
23172;BME280;11754;42.664;23.594;2023-04-26T13:36:14;94446.16;;;17.79;37.21
23172;BME280;11754;42.664;23.594;2023-04-26T13:38:40;94447.41;;;18.17;38.08
23172;BME280;11754;42.664;23.594;2023-04-26T13:41:06;94446.41;;;18.35;36.56
23172;BME280;11754;42.664;23.594;2023-04-26T13:43:32;94462.22;;;18.99;36.18
23172;BME280;11754;42.664;23.594;2023-04-26T13:45:58;94447.06;;;18.87;35.15
23172;BME280;11754;42.664;23.594;2023-04-26T13:48:23;94458.97;;;18.80;36.64
23172;BME280;11754;42.664;23.594;2023-04-26T13:50:48;94455.25;;;18.98;36.28
23172;BME280;11754;42.664;23.594;2023-04-26T13:53:14;94469.25;;;18.88;36.65
23172;BME280;11754;42.664;23.594;2023-04-26T13:55:39;94457.00;;;18.01;37.45
23172;BME280;11754;42.664;23.594;2023-04-26T13:58:05;94475.66;;;18.01;38.45
23172;BME280;11754;42.664;23.594;2023-04-26T14:00:30;94458.38;;;17.92;38.21
23172;BME280;11754;42.664;23.594;2023-04-26T14:02:56;94455.56;;;17.23;38.92
23172;BME280;11754;42.664;23.594;2023-04-26T14:05:21;94472.38;;;17.00;39.60
23172;BME280;11754;42.664;23.594;2023-04-26T14:07:47;94474.09;;;16.52;40.61
23172;BME280;11754;42.664;23.594;2023-04-26T14:10:13;94459.09;;;16.28;41.54
23172;BME280;11754;42.664;23.594;2023-04-26T14:12:38;94480.53;;;16.15;41.78
23172;BME280;11754;42.664;23.594;2023-04-26T14:15:04;94483.69;;;15.93;42.75
23172;BME280;11754;42.664;23.594;2023-04-26T14:17:31;94481.41;;;15.78;42.58
23172;BME280;11754;42.664;23.594;2023-04-26T14:19:56;94466.19;;;15.49;42.77
23172;BME280;11754;42.664;23.594;2023-04-26T14:22:22;94481.31;;;15.48;42.96
23172;BME280;11754;42.664;23.594;2023-04-26T14:24:47;94481.31;;;15.48;43.35
23172;BME280;11754;42.664;23.594;2023-04-26T14:27:13;94476.56;;;15.32;43.71
23172;BME280;11754;42.664;23.594;2023-04-26T14:29:38;94484.81;;;15.24;44.18
23172;BME280;11754;42.664;23.594;2023-04-26T14:32:04;94498.13;;;14.99;45.56
23172;BME280;11754;42.664;23.594;2023-04-26T14:34:30;94504.22;;;14.99;45.26
23172;BME280;11754;42.664;23.594;2023-04-26T14:36:55;94499.56;;;14.70;46.03
23172;BME280;11754;42.664;23.594;2023-04-26T14:39:26;94507.78;;;14.61;46.36
23172;BME280;11754;42.664;23.594;2023-04-26T14:41:51;94500.69;;;14.49;46.61
23172;BME280;11754;42.664;23.594;2023-04-26T14:44:17;94522.63;;;14.31;47.32
23172;BME280;11754;42.664;23.594;2023-04-26T14:46:42;94516.97;;;14.21;47.80
23172;BME280;11754;42.664;23.594;2023-04-26T14:49:07;94528.03;;;14.17;48.50
23172;BME280;11754;42.664;23.594;2023-04-26T14:51:33;94531.28;;;14.13;49.34
23172;BME280;11754;42.664;23.594;2023-04-26T14:53:58;94529.72;;;13.99;49.21
23172;BME280;11754;42.664;23.594;2023-04-26T14:56:24;94529.31;;;13.95;48.20
23172;BME280;11754;42.664;23.594;2023-04-26T14:58:49;94526.94;;;13.74;48.50
23172;BME280;11754;42.664;23.594;2023-04-26T15:01:14;94553.50;;;13.60;49.83
23172;BME280;11754;42.664;23.594;2023-04-26T15:03:40;94555.75;;;13.50;50.65
23172;BME280;11754;42.664;23.594;2023-04-26T15:06:07;94555.13;;;13.41;50.32
23172;BME280;11754;42.664;23.594;2023-04-26T15:08:33;94551.06;;;13.19;50.77
23172;BME280;11754;42.664;23.594;2023-04-26T15:10:59;94558.19;;;13.05;51.18
23172;BME280;11754;42.664;23.594;2023-04-26T15:13:24;94569.59;;;13.12;51.50
23172;BME280;11754;42.664;23.594;2023-04-26T15:15:49;94557.59;;;13.03;52.11
23172;BME280;11754;42.664;23.594;2023-04-26T15:18:15;94544.97;;;12.92;52.01
23172;BME280;11754;42.664;23.594;2023-04-26T15:20:40;94580.78;;;13.08;52.70
23172;BME280;11754;42.664;23.594;2023-04-26T15:23:06;94586.09;;;13.14;52.41
23172;BME280;11754;42.664;23.594;2023-04-26T15:25:35;94567.78;;;13.06;52.50
23172;BME280;11754;42.664;23.594;2023-04-26T15:28:01;94598.53;;;13.20;53.20
23172;BME280;11754;42.664;23.594;2023-04-26T15:30:27;94600.13;;;13.08;53.15
23172;BME280;11754;42.664;23.594;2023-04-26T15:32:54;94604.41;;;13.16;53.58
23172;BME280;11754;42.664;23.594;2023-04-26T15:35:20;94607.09;;;13.09;53.19
23172;BME280;11754;42.664;23.594;2023-04-26T15:37:45;94610.56;;;13.16;53.42
23172;BME280;11754;42.664;23.594;2023-04-26T15:40:12;94603.38;;;12.97;52.76
23172;BME280;11754;42.664;23.594;2023-04-26T15:42:37;94618.44;;;12.90;53.58
23172;BME280;11754;42.664;23.594;2023-04-26T15:45:03;94609.31;;;12.99;53.69
23172;BME280;11754;42.664;23.594;2023-04-26T15:47:29;94631.69;;;13.03;52.91
23172;BME280;11754;42.664;23.594;2023-04-26T15:49:55;94618.44;;;12.77;52.92
23172;BME280;11754;42.664;23.594;2023-04-26T15:52:24;94610.03;;;12.53;53.39
23172;BME280;11754;42.664;23.594;2023-04-26T15:54:50;94619.56;;;12.54;53.78
23172;BME280;11754;42.664;23.594;2023-04-26T15:57:15;94626.72;;;12.60;53.39
23172;BME280;11754;42.664;23.594;2023-04-26T15:59:41;94624.91;;;12.67;53.80
23172;BME280;11754;42.664;23.594;2023-04-26T16:02:06;94631.66;;;12.77;53.85
23172;BME280;11754;42.664;23.594;2023-04-26T16:04:32;94645.94;;;12.89;53.69
23172;BME280;11754;42.664;23.594;2023-04-26T16:06:57;94632.47;;;12.70;54.41
23172;BME280;11754;42.664;23.594;2023-04-26T16:09:22;94652.34;;;12.53;54.71
23172;BME280;11754;42.664;23.594;2023-04-26T16:11:48;94663.25;;;12.37;55.21
23172;BME280;11754;42.664;23.594;2023-04-26T16:17:41;94663.56;;;12.14;55.80